Time;durP1;ratioP1;P1;durP2;ratioP2;P2;SDS_P1;SDS_P2;PMS_P1;PMS_P2;Temp;Humidity;BMP_temperature;BMP_pressure;BME280_temperature;BME280_humidity;BME280_pressure;Samples;Min_cycle;Max_cycle;Signal;HPM_P1;HPM_P2
2024/01/19 00:01:39;;;;;;;7.45;4.75;;;5.70;99.90;;;5.94;73.21;101209.59;4974837;28;20440;-73
2024/01/19 00:04:07;;;;;;;7.35;5.35;;;5.70;99.90;;;5.88;73.48;101213.00;4974753;28;20112;-70
2024/01/19 00:06:39;;;;;;;8.55;4.85;;;5.70;99.90;;;5.30;73.55;101120.81;4974755;28;20117;-69
2024/01/19 00:09:08;;;;;;;7.65;4.90;;;5.60;99.90;;;5.92;73.54;101213.94;4973769;28;20078;-72
2024/01/19 00:11:37;;;;;;;8.63;4.68;;;5.70;99.90;;;5.62;73.11;101216.78;4974702;28;20058;-71
2024/01/19 00:14:06;;;;;;;13.32;5.70;;;5.50;99.90;;;5.03;71.74;101204.97;4973640;28;20051;-74
2024/01/19 00:16:34;;;;;;;9.38;5.00;;;5.00;99.90;;;4.95;69.89;101210.91;4974936;28;20047;-68
2024/01/19 00:19:03;;;;;;;10.98;5.85;;;4.80;99.90;;;4.78;70.23;101204.38;4974525;28;20699;-69
2024/01/19 00:21:31;;;;;;;16.50;5.85;;;4.70;99.90;;;4.84;70.35;101209.78;4974644;28;20071;-68
2024/01/19 00:24:00;;;;;;;12.53;6.20;;;4.70;99.90;;;4.90;69.83;101213.41;4974361;28;20046;-68
2024/01/19 00:26:28;;;;;;;13.30;6.35;;;4.70;99.90;;;4.97;69.48;101214.44;4974517;28;20058;-67
2024/01/19 00:28:58;;;;;;;15.02;5.50;;;4.80;99.90;;;4.89;69.78;101205.50;4974833;28;20054;-68
2024/01/19 00:31:27;;;;;;;10.73;5.68;;;4.70;99.90;;;4.81;70.22;101209.69;4974400;28;20515;-68
2024/01/19 00:33:56;;;;;;;15.43;6.07;;;4.70;99.90;;;4.17;70.53;101095.50;4974340;28;20062;-68
2024/01/19 00:36:24;;;;;;;10.75;6.25;;;4.70;99.90;;;4.93;71.00;101212.59;4973121;28;20493;-68
2024/01/19 00:38:53;;;;;;;9.90;5.68;;;4.70;99.90;;;4.89;71.25;101181.94;4974231;28;20113;-68
2024/01/19 00:41:21;;;;;;;14.48;6.50;;;4.80;99.90;;;5.00;71.42;101202.28;4974420;28;20068;-68
2024/01/19 00:43:51;;;;;;;13.98;6.15;;;4.90;99.90;;;5.15;71.23;101218.38;4989362;28;20291;-67
2024/01/19 00:46:21;;;;;;;11.15;5.82;;;5.00;99.90;;;5.09;71.46;101219.97;4974079;28;20299;-68
2024/01/19 00:48:50;;;;;;;13.65;6.00;;;4.90;99.90;;;5.11;70.96;101206.03;4974558;28;20038;-67
2024/01/19 00:51:19;;;;;;;18.25;6.55;;;5.10;99.90;;;5.17;70.49;101210.53;4973995;28;20641;-68
2024/01/19 00:53:47;;;;;;;14.73;6.72;;;5.10;99.90;;;5.36;69.97;101225.84;4973917;28;20221;-68
2024/01/19 00:56:17;;;;;;;10.88;6.47;;;5.20;99.90;;;5.18;69.56;101214.94;4973818;28;20074;-68
2024/01/19 00:58:46;;;;;;;15.70;6.28;;;5.10;99.90;;;5.07;69.85;101224.28;4973851;28;20047;-68
2024/01/19 01:01:14;;;;;;;13.20;5.93;;;5.00;99.90;;;5.02;68.75;101208.44;4974050;28;20065;-68
2024/01/19 01:03:44;;;;;;;15.63;6.18;;;5.00;99.90;;;5.22;68.26;101229.88;4972711;28;20047;-68
2024/01/19 01:06:12;;;;;;;15.25;6.72;;;5.10;99.90;;;5.26;67.93;101230.00;4973765;28;20100;-68
2024/01/19 01:08:41;;;;;;;9.32;5.78;;;5.10;99.90;;;5.27;67.73;101237.00;4973846;28;20047;-68
2024/01/19 01:11:10;;;;;;;13.15;6.22;;;5.10;99.90;;;5.06;68.10;101241.75;4974077;28;20058;-69
2024/01/19 01:13:38;;;;;;;10.45;6.03;;;5.00;99.90;;;4.80;68.40;101200.06;4973428;28;20174;-67
2024/01/19 01:16:07;;;;;;;12.10;6.40;;;4.90;99.90;;;4.93;68.42;101228.31;4973583;28;20051;-68
2024/01/19 01:18:35;;;;;;;12.05;5.80;;;4.90;99.90;;;5.04;68.46;101245.19;4973486;28;20057;-68
2024/01/19 01:21:06;;;;;;;13.48;6.05;;;4.90;99.90;;;4.94;69.25;101251.03;4973400;28;20046;-68
2024/01/19 01:23:34;;;;;;;;;;;4.80;99.90;;;4.99;69.69;101257.31;4974314;28;20048;-67
2024/01/19 01:26:02;;;;;;;13.65;6.20;;;4.80;99.90;;;5.03;69.77;101252.16;4973237;28;19926;-69
2024/01/19 01:28:31;;;;;;;9.75;5.75;;;4.80;99.90;;;5.14;69.48;101250.69;4973141;28;20054;-67
2024/01/19 01:30:59;;;;;;;12.48;6.97;;;5.00;99.90;;;5.05;69.94;101249.59;4973066;28;20047;-68
2024/01/19 01:33:27;;;;;;;12.90;6.43;;;4.90;99.90;;;5.02;71.08;101249.50;4973411;28;20047;-69
2024/01/19 01:35:56;;;;;;;16.65;6.13;;;4.90;99.90;;;5.09;70.91;101256.69;4972920;28;20070;-67
2024/01/19 01:38:26;;;;;;;12.37;7.53;;;4.90;99.90;;;5.01;71.34;101269.59;4973044;28;20043;-67
2024/01/19 01:40:54;;;;;;;8.85;5.93;;;4.80;99.90;;;5.02;71.84;101259.97;4973388;28;20505;-68
2024/01/19 01:43:25;;;;;;;14.20;6.53;;;4.80;99.90;;;4.84;71.76;101264.78;4972919;28;20105;-68
2024/01/19 01:45:54;;;;;;;10.63;6.75;;;4.70;99.90;;;4.84;71.85;101260.41;4973561;28;20051;-68
2024/01/19 01:48:24;;;;;;;14.55;6.93;;;4.70;99.90;;;4.90;71.96;101264.91;4972708;28;20654;-67
2024/01/19 01:50:55;;;;;;;14.35;7.38;;;4.70;99.90;;;5.04;71.82;101274.91;4973193;28;20054;-68
2024/01/19 01:53:25;;;;;;;;;;;4.80;99.90;;;5.00;71.46;101274.78;4973340;28;20046;-68
2024/01/19 01:55:54;;;;;;;16.23;7.93;;;4.80;99.90;;;4.90;72.59;101275.41;4973241;28;19925;-69
2024/01/19 01:58:23;;;;;;;16.70;7.83;;;4.80;99.90;;;4.87;72.68;101271.00;4971622;28;20061;-68
2024/01/19 02:00:52;;;;;;;16.75;7.93;;;4.80;99.90;;;4.87;73.40;101281.47;4972660;28;20492;-69
2024/01/19 02:03:21;;;;;;;19.37;8.90;;;4.70;99.90;;;4.85;73.16;101277.94;4972892;28;20073;-68
2024/01/19 02:05:49;;;;;;;16.30;8.02;;;4.70;99.90;;;4.79;73.86;101292.59;4972601;28;20074;-69
2024/01/19 02:08:18;;;;;;;15.20;8.23;;;4.70;99.90;;;4.62;73.70;101267.72;4972495;28;20463;-68
2024/01/19 02:10:48;;;;;;;18.70;7.50;;;4.60;99.90;;;4.80;73.56;101295.25;4973158;28;20055;-69
2024/01/19 02:13:17;;;;;;;15.35;7.68;;;4.70;99.90;;;4.28;74.14;101211.84;4972445;28;20496;-69
2024/01/19 02:15:45;;;;;;;17.33;8.40;;;4.60;99.90;;;4.72;73.81;101293.31;4972289;28;20047;-68
2024/01/19 02:18:14;;;;;;;18.15;7.75;;;4.60;99.90;;;4.77;74.10;101294.28;4987495;28;20059;-69
2024/01/19 02:20:43;;;;;;;17.13;7.32;;;4.60;99.90;;;4.68;74.40;101284.47;4972433;28;20130;-69
2024/01/19 02:23:14;;;;;;;13.60;7.60;;;4.60;99.90;;;4.51;74.56;101276.16;4972156;28;20452;-68
2024/01/19 02:25:44;;;;;;;19.42;7.95;;;4.60;99.90;;;4.75;74.58;101307.38;4972408;28;20136;-69
2024/01/19 02:28:13;;;;;;;16.10;7.95;;;4.60;99.90;;;4.62;74.04;101301.75;4972252;28;20038;-69
2024/01/19 02:30:42;;;;;;;14.23;7.70;;;4.50;99.90;;;4.70;74.04;101311.59;4972130;28;20078;-69
2024/01/19 02:33:11;;;;;;;19.07;8.43;;;4.50;99.90;;;4.74;73.77;101316.09;4987591;28;20081;-68
2024/01/19 02:35:40;;;;;;;16.47;8.50;;;4.60;99.90;;;4.83;73.37;101310.19;4972428;28;20201;-66
2024/01/19 02:38:08;;;;;;;14.07;8.30;;;4.60;99.90;;;4.84;73.43;101318.06;4972171;28;20043;-69
2024/01/19 02:40:36;;;;;;;14.00;7.73;;;4.70;99.90;;;4.77;73.20;101317.88;4971094;28;20050;-69
2024/01/19 02:43:06;;;;;;;13.88;7.85;;;4.60;99.90;;;4.78;72.65;101320.53;4972104;28;20074;-69
2024/01/19 02:45:34;;;;;;;15.07;7.40;;;4.60;99.90;;;4.88;72.44;101319.91;4971032;28;20051;-68
2024/01/19 02:48:04;;;;;;;15.07;8.07;;;4.70;99.90;;;4.79;72.74;101330.19;4971979;28;20049;-68
2024/01/19 02:50:32;;;;;;;16.57;7.90;;;4.60;99.90;;;4.74;73.22;101333.53;4972520;28;20050;-68
2024/01/19 02:53:00;;;;;;;16.67;8.40;;;4.60;99.90;;;4.75;73.19;101344.03;4971965;28;20496;-69
2024/01/19 02:55:29;;;;;;;13.37;8.60;;;4.60;99.90;;;4.70;73.25;101345.66;4971770;28;20571;-69
2024/01/19 02:57:57;;;;;;;13.70;7.55;;;4.50;99.90;;;4.66;73.65;101342.91;4972066;28;20204;-69
2024/01/19 03:00:27;;;;;;;18.50;8.23;;;4.50;99.90;;;4.76;73.50;101345.84;4972242;28;20074;-70
2024/01/19 03:02:55;;;;;;;18.98;8.60;;;4.60;99.90;;;4.80;73.65;101342.41;4975949;28;20126;-69
2024/01/19 03:05:23;;;;;;;16.07;8.50;;;4.60;99.90;;;4.96;73.44;101348.94;4975877;28;20027;-68
2024/01/19 03:07:52;;;;;;;17.80;9.07;;;4.70;99.90;;;4.94;73.42;101346.28;4975730;28;20047;-69
2024/01/19 03:10:20;;;;;;;14.73;8.47;;;4.80;99.90;;;5.13;73.35;101350.28;4975811;28;20047;-69
2024/01/19 03:12:49;;;;;;;17.20;8.53;;;4.90;99.90;;;5.23;73.24;101347.91;4975989;28;20038;-69
2024/01/19 03:15:17;;;;;;;21.92;7.97;;;5.00;99.90;;;5.15;73.17;101341.59;4974806;28;20049;-69
2024/01/19 03:17:47;;;;;;;16.33;8.40;;;5.00;99.90;;;5.28;73.28;101343.66;4975875;28;20043;-69
2024/01/19 03:20:15;;;;;;;16.27;7.80;;;5.10;99.90;;;5.38;73.15;101347.41;4976175;28;20050;-69
2024/01/19 03:22:44;;;;;;;17.23;7.75;;;5.20;99.90;;;5.37;72.63;101354.38;4975492;28;20051;-68
2024/01/19 03:25:12;;;;;;;16.33;7.70;;;5.20;99.90;;;5.31;72.82;101351.59;4975721;28;20415;-69
2024/01/19 03:27:40;;;;;;;19.42;8.40;;;5.20;99.90;;;5.37;72.99;101356.13;4975773;28;20074;-69
2024/01/19 03:30:10;;;;;;;15.50;7.88;;;5.20;99.90;;;5.37;73.13;101353.50;4975474;28;20113;-68
2024/01/19 03:32:38;;;;;;;15.80;7.65;;;5.20;99.90;;;5.32;73.16;101355.13;4975352;28;20054;-69
2024/01/19 03:35:08;;;;;;;17.85;8.18;;;5.20;99.90;;;5.46;73.15;101353.69;4974271;28;20413;-68
2024/01/19 03:37:37;;;;;;;14.98;7.82;;;5.30;99.90;;;5.30;73.53;101362.06;4975063;28;20055;-69
2024/01/19 03:40:07;;;;;;;17.23;7.95;;;5.10;99.90;;;5.08;74.40;101365.88;4975215;28;20129;-69
2024/01/19 03:42:35;;;;;;;16.00;7.80;;;4.90;99.90;;;4.96;74.25;101367.28;4975233;28;20058;-68
2024/01/19 03:45:05;;;;;;;19.77;8.35;;;4.80;99.90;;;4.93;74.92;101369.84;4975124;28;20093;-68
2024/01/19 03:47:33;;;;;;;15.02;6.95;;;4.80;99.90;;;4.98;74.94;101368.22;4975381;28;20480;-70
2024/01/19 03:50:02;;;;;;;13.35;7.07;;;4.70;99.90;;;5.05;74.68;101367.56;4975306;28;20039;-69
2024/01/19 03:52:32;;;;;;;18.95;7.95;;;4.80;99.90;;;5.13;74.27;101364.25;4974994;28;20057;-68
2024/01/19 03:55:01;;;;;;;14.23;7.78;;;4.90;99.90;;;5.10;73.95;101363.28;4973909;28;20575;-68
2024/01/19 03:57:29;;;;;;;18.92;7.72;;;4.90;99.90;;;5.26;72.98;101370.72;4974915;28;20067;-69
2024/01/19 03:59:57;;;;;;;18.38;6.82;;;5.00;99.90;;;5.31;72.28;101369.97;4974840;28;20047;-69
2024/01/19 04:02:26;;;;;;;17.23;7.33;;;5.10;99.90;;;5.47;71.25;101363.38;4990002;28;20071;-70
2024/01/19 04:04:54;;;;;;;15.30;6.70;;;5.20;99.90;;;5.47;70.80;101361.63;4974955;28;20453;-69
2024/01/19 04:07:22;;;;;;;15.02;6.55;;;5.30;99.90;;;5.53;70.63;101371.38;4974744;28;20043;-69
2024/01/19 04:09:52;;;;;;;14.68;7.15;;;5.30;99.90;;;5.36;70.38;101352.59;4975316;28;20042;-69
2024/01/19 04:12:20;;;;;;;11.77;6.65;;;5.30;99.90;;;5.45;70.45;101380.78;4974509;28;20486;-69
2024/01/19 04:14:49;;;;;;;14.55;7.15;;;5.30;99.90;;;5.42;70.71;101378.09;4974617;28;20385;-68
2024/01/19 04:17:17;;;;;;;12.48;6.32;;;5.30;99.90;;;5.43;70.74;101387.75;4974531;28;20057;-69
2024/01/19 04:19:46;;;;;;;15.55;7.35;;;5.20;99.90;;;5.42;70.92;101389.47;4974762;28;20400;-68
2024/01/19 04:22:15;;;;;;;15.10;7.60;;;5.30;99.90;;;5.45;71.84;101372.94;4974539;28;20058;-68
2024/01/19 04:24:43;;;;;;;15.30;6.90;;;5.30;99.90;;;5.61;71.81;101396.06;4974449;28;20558;-68
2024/01/19 04:27:13;;;;;;;19.42;7.53;;;5.40;99.90;;;5.43;72.66;101413.97;4973361;28;20101;-69
2024/01/19 04:29:41;;;;;;;13.93;6.10;;;5.30;99.90;;;5.21;77.47;101415.16;4974625;28;20130;-68
2024/01/19 04:32:09;;;;;;;10.43;5.73;;;5.10;99.90;;;5.29;79.71;101433.72;4974282;28;20125;-68
2024/01/19 04:34:38;;;;;;;15.25;5.45;;;5.10;99.90;;;5.23;81.29;101444.94;4974842;28;20051;-71
2024/01/19 04:37:06;;;;;;;17.67;6.13;;;5.10;99.90;;;4.74;84.43;101456.66;4974409;28;20061;-70
2024/01/19 04:39:35;;;;;;;13.27;6.70;;;4.70;99.90;;;4.59;85.32;101463.25;4974210;28;20047;-69
2024/01/19 04:42:03;;;;;;;11.87;6.57;;;4.60;99.90;;;4.16;87.66;101454.94;4974334;28;20070;-69
2024/01/19 04:44:33;;;;;;;9.00;5.77;;;4.20;99.90;;;3.86;89.05;101448.75;4974600;28;20051;-70
2024/01/19 04:47:02;;;;;;;7.82;5.60;;;3.80;99.90;;;3.61;91.18;101446.19;4974393;28;20058;-69
2024/01/19 04:49:30;;;;;;;12.57;6.63;;;3.60;99.90;;;3.39;93.21;101459.38;4974085;28;20051;-69
2024/01/19 04:51:58;;;;;;;6.83;6.20;;;3.30;99.90;;;3.35;94.28;101442.72;4974277;28;20049;-70
2024/01/19 04:54:27;;;;;;;8.53;5.93;;;3.30;99.90;;;3.45;95.21;101464.81;4973931;28;20126;-69
2024/01/19 04:56:55;;;;;;;9.73;6.27;;;3.30;99.90;;;3.56;95.45;101455.63;4972771;28;20488;-71
2024/01/19 04:59:23;;;;;;;7.47;5.63;;;3.40;99.90;;;3.73;95.63;101467.53;4974346;28;20366;-70
2024/01/19 05:01:53;;;;;;;9.80;5.83;;;3.50;99.90;;;3.82;94.76;101473.06;4973815;28;20516;-69
2024/01/19 05:04:22;;;;;;;7.30;5.85;;;3.70;99.90;;;3.95;95.08;101466.50;4973707;28;20126;-70
2024/01/19 05:06:50;;;;;;;9.23;5.60;;;3.80;99.90;;;3.94;94.32;101470.84;4973637;28;20069;-70
2024/01/19 05:09:19;;;;;;;7.03;6.33;;;3.80;99.90;;;4.05;94.46;101471.16;4973634;28;20094;-71
2024/01/19 05:11:48;;;;;;;7.77;6.10;;;3.90;99.90;;;3.99;94.21;101471.84;4973660;28;20051;-68
2024/01/19 05:14:16;;;;;;;8.30;6.17;;;3.80;99.90;;;4.18;93.83;101481.19;4972576;28;20047;-70
2024/01/19 05:16:44;;;;;;;7.60;5.90;;;4.00;99.90;;;4.31;93.08;101485.94;4973505;28;20096;-70
2024/01/19 05:19:14;;;;;;;8.77;5.73;;;4.10;99.90;;;4.41;92.51;101482.78;4973357;28;20180;-69
2024/01/19 05:21:42;;;;;;;10.75;5.97;;;4.30;99.90;;;4.44;91.64;101489.00;4988594;28;20054;-69
2024/01/19 05:24:11;;;;;;;9.83;6.63;;;4.30;99.90;;;4.45;91.37;101516.94;4972693;28;20105;-69
2024/01/19 05:26:39;;;;;;;9.33;6.30;;;4.30;99.90;;;4.61;91.02;101506.94;4973336;28;20126;-70
2024/01/19 05:29:07;;;;;;;8.30;6.23;;;4.40;99.90;;;4.62;90.40;101493.00;4973895;28;20051;-67
2024/01/19 05:31:36;;;;;;;9.80;6.60;;;4.50;99.90;;;4.76;90.24;101508.28;4973196;28;20038;-69
2024/01/19 05:34:04;;;;;;;9.00;6.40;;;4.60;99.90;;;4.81;89.44;101509.28;4988302;28;20551;-70
2024/01/19 05:36:34;;;;;;;7.07;6.00;;;4.60;99.90;;;4.85;89.02;101505.03;4973100;28;20090;-69
2024/01/19 05:39:03;;;;;;;9.80;6.05;;;4.70;99.90;;;4.90;88.68;101513.88;4973003;28;20452;-70
2024/01/19 05:41:31;;;;;;;7.80;6.20;;;4.70;99.90;;;4.89;88.05;101518.28;4972960;28;20499;-70
2024/01/19 05:43:59;;;;;;;7.47;6.10;;;4.70;99.90;;;4.77;87.85;101503.91;4973112;28;20047;-68
2024/01/19 05:46:28;;;;;;;9.55;6.00;;;4.70;99.90;;;4.94;87.83;101528.88;4972938;28;20089;-70
2024/01/19 05:48:56;;;;;;;7.97;5.45;;;4.80;99.90;;;4.92;87.46;101535.78;4972828;28;20101;-69
2024/01/19 05:51:25;;;;;;;11.73;6.13;;;4.80;99.90;;;4.92;87.02;101530.53;4972902;28;20427;-68
2024/01/19 05:53:55;;;;;;;8.70;5.87;;;4.70;99.90;;;4.93;86.98;101542.81;4973056;28;20077;-69
2024/01/19 05:56:23;;;;;;;7.13;6.28;;;4.70;99.90;;;4.90;87.23;101541.00;4972834;28;20065;-69
2024/01/19 05:58:52;;;;;;;6.80;6.10;;;4.70;99.90;;;4.87;86.65;101546.16;4972853;28;20057;-70
2024/01/19 06:01:21;;;;;;;11.75;6.85;;;4.70;99.90;;;4.88;86.66;101552.31;4972731;28;20126;-70
2024/01/19 06:03:49;;;;;;;13.00;6.60;;;4.70;99.90;;;4.87;86.68;101554.03;4972948;28;20046;-70
2024/01/19 06:06:17;;;;;;;11.23;6.78;;;4.70;99.90;;;4.86;86.14;101551.38;4972745;28;20477;-69
2024/01/19 06:08:46;;;;;;;8.10;6.97;;;4.70;99.90;;;4.83;86.17;101553.88;4972567;28;20055;-70
2024/01/19 06:11:16;;;;;;;9.90;7.37;;;4.60;99.90;;;4.80;86.09;101564.28;4972774;28;20045;-69
2024/01/19 06:13:45;;;;;;;12.85;7.20;;;4.60;99.90;;;4.79;85.67;101565.09;4973007;28;20085;-70
2024/01/19 06:16:13;;;;;;;7.90;6.53;;;4.60;99.90;;;4.77;86.01;101570.31;4971396;28;20043;-68
2024/01/19 06:18:42;;;;;;;8.40;7.23;;;4.60;99.90;;;4.79;85.84;101575.59;4972300;28;20051;-68
2024/01/19 06:21:11;;;;;;;8.77;6.37;;;4.60;99.90;;;4.62;85.42;101555.84;4972591;28;20475;-70
2024/01/19 06:23:39;;;;;;;10.73;7.60;;;4.60;99.90;;;4.82;85.63;101583.56;4972296;28;20046;-69
2024/01/19 06:26:11;;;;;;;11.57;7.20;;;4.60;99.90;;;4.71;85.42;101557.03;4972257;28;20416;-68
2024/01/19 06:28:42;;;;;;;10.43;6.80;;;4.60;99.90;;;4.83;85.69;101591.47;4972229;28;20595;-67
2024/01/19 06:31:10;;;;;;;11.57;7.20;;;4.60;99.90;;;4.87;85.65;101593.34;4972184;28;20042;-69
2024/01/19 06:33:39;;;;;;;10.27;6.10;;;4.70;99.90;;;4.83;85.32;101594.09;4972155;28;20035;-68
2024/01/19 06:36:10;;;;;;;12.17;6.60;;;4.70;99.90;;;4.91;85.15;101602.16;4972058;28;20117;-69
2024/01/19 06:38:38;;;;;;;10.17;6.70;;;4.70;99.90;;;4.90;85.17;101609.13;4972123;28;20043;-70
2024/01/19 06:41:06;;;;;;;10.17;6.60;;;4.70;99.90;;;4.82;85.17;101602.78;4972073;28;20043;-69
2024/01/19 06:43:35;;;;;;;14.53;7.37;;;4.70;99.90;;;4.84;84.97;101600.22;4972302;28;20055;-70
2024/01/19 06:46:06;;;;;;;12.80;6.35;;;4.70;99.90;;;4.59;84.93;101594.22;4972264;28;20114;-69
2024/01/19 06:48:34;;;;;;;9.23;6.73;;;4.60;99.90;;;4.66;84.67;101612.75;4972114;28;20078;-69
2024/01/19 06:51:03;;;;;;;11.23;6.53;;;4.40;99.90;;;4.64;84.50;101617.94;4972057;28;20046;-71
2024/01/19 06:53:31;;;;;;;9.83;6.63;;;4.40;99.90;;;4.56;84.54;101628.19;4971971;28;20696;-70
2024/01/19 06:56:00;;;;;;;11.17;7.60;;;4.30;99.90;;;4.39;84.19;101631.09;4972146;28;20469;-70
2024/01/19 06:58:37;;;;;;;7.33;6.33;;;4.20;99.90;;;4.23;84.22;101626.19;4971793;28;20074;-69
2024/01/19 07:01:07;;;;;;;9.13;6.83;;;4.00;99.90;;;4.32;84.14;101631.72;4972062;28;20059;-70
2024/01/19 07:03:36;;;;;;;10.88;7.13;;;4.00;99.90;;;4.21;83.43;101627.88;4971923;28;20484;-71
2024/01/19 07:06:04;;;;;;;10.87;6.97;;;4.00;99.90;;;4.27;83.89;101644.69;4972145;28;20050;-68
2024/01/19 07:08:33;;;;;;;10.70;6.57;;;4.00;99.90;;;4.23;83.61;101642.81;4972026;28;20039;-70
2024/01/19 07:11:02;;;;;;;14.97;6.57;;;4.00;99.90;;;4.01;83.16;101644.63;4972112;28;20191;-69
2024/01/19 07:13:30;;;;;;;10.97;6.30;;;3.80;99.90;;;4.10;83.64;101648.47;4971990;28;20597;-70
2024/01/19 07:15:58;;;;;;;14.67;6.37;;;3.80;99.90;;;4.09;84.08;101653.63;4971760;28;20034;-68
2024/01/19 07:18:28;;;;;;;12.83;7.20;;;3.80;99.90;;;3.96;83.56;101659.28;4971615;28;20084;-69
2024/01/19 07:20:58;;;;;;;13.52;6.15;;;3.80;99.90;;;3.89;83.35;101665.16;4972310;28;20455;-69
2024/01/19 07:23:26;;;;;;;12.13;6.33;;;3.70;99.90;;;3.90;83.44;101661.69;4971623;28;20039;-70
2024/01/19 07:25:58;;;;;;;13.70;7.20;;;3.70;99.90;;;3.98;84.03;101676.84;4971881;28;20512;-70
2024/01/19 07:28:26;;;;;;;11.43;6.27;;;3.80;99.90;;;3.96;83.69;101670.66;4971542;28;20504;-68
2024/01/19 07:30:54;;;;;;;12.23;6.30;;;3.70;99.90;;;3.93;83.80;101678.38;4971542;28;20038;-68
2024/01/19 07:33:24;;;;;;;13.00;6.87;;;3.70;99.90;;;3.79;84.04;101679.66;4972028;28;20054;-69
2024/01/19 07:36:01;;;;;;;14.80;6.13;;;3.60;99.90;;;3.96;84.47;101677.59;4971756;28;20067;-69
2024/01/19 07:38:30;;;;;;;13.73;6.35;;;3.70;99.90;;;4.03;84.05;101682.19;4971508;28;20039;-69
2024/01/19 07:40:59;;;;;;;13.57;6.27;;;3.80;99.90;;;4.11;84.29;101684.25;4971471;28;20496;-69
2024/01/19 07:43:28;;;;;;;14.50;6.87;;;3.90;99.90;;;4.11;83.87;101697.34;4986524;28;20065;-69
2024/01/19 07:45:56;;;;;;;11.43;6.83;;;4.00;99.90;;;4.25;83.87;101692.59;4987043;28;20141;-72
2024/01/19 07:48:25;;;;;;;15.13;7.17;;;4.10;99.90;;;4.31;84.06;101701.56;4975502;28;20055;-71
2024/01/19 07:50:54;;;;;;;14.43;7.33;;;4.10;99.90;;;4.33;84.66;101699.88;4975253;28;20077;-68
2024/01/19 07:53:24;;;;;;;10.07;7.17;;;4.20;99.90;;;4.36;84.47;101693.84;4974922;28;20314;-67
2024/01/19 07:55:52;;;;;;;17.58;8.18;;;4.20;99.90;;;4.46;84.60;101709.94;4974935;28;20480;-67
2024/01/19 07:58:21;;;;;;;11.23;6.90;;;4.30;99.90;;;4.57;84.84;101711.16;4975096;28;20050;-74
2024/01/19 08:00:49;;;;;;;13.53;6.90;;;4.30;99.90;;;4.72;84.92;101712.50;4974958;28;20074;-73
2024/01/19 08:03:19;;;;;;;12.70;7.03;;;4.50;99.90;;;4.85;85.13;101719.91;4974805;28;20046;-68
2024/01/19 08:05:48;;;;;;;11.05;7.05;;;4.60;99.90;;;4.98;85.46;101720.34;4974863;28;20464;-69
2024/01/19 08:08:16;;;;;;;12.37;6.67;;;4.70;99.90;;;5.13;84.96;101727.84;4974670;28;20035;-67
2024/01/19 08:10:46;;;;;;;13.67;7.00;;;4.90;99.90;;;5.20;84.56;101722.81;4974642;28;20055;-68
2024/01/19 08:13:15;;;;;;;12.60;6.93;;;5.00;99.90;;;5.36;84.70;101725.03;4989715;28;20089;-67
2024/01/19 08:15:43;;;;;;;11.55;6.35;;;5.20;99.90;;;5.48;84.61;101729.75;4974485;28;20508;-71
2024/01/19 08:18:11;;;;;;;16.00;7.05;;;5.30;99.90;;;5.61;84.21;101721.44;4974584;28;20050;-73
2024/01/19 08:20:40;;;;;;;13.55;6.63;;;5.40;99.90;;;5.74;83.82;101736.69;4974708;28;20701;-72
2024/01/19 08:23:08;;;;;;;10.98;6.22;;;5.40;99.90;;;5.78;83.25;101743.81;4989653;28;20045;-75
2024/01/19 08:25:37;;;;;;;11.00;7.03;;;5.50;99.90;;;5.80;82.91;101741.22;4974355;28;20050;-72
2024/01/19 08:28:07;;;;;;;11.18;6.35;;;5.50;99.90;;;5.79;83.29;101744.69;4974236;28;20548;-71
2024/01/19 08:30:35;;;;;;;10.45;6.65;;;5.50;99.90;;;5.79;83.02;101753.44;4974775;28;20058;-71
2024/01/19 08:33:04;;;;;;;12.23;7.03;;;5.50;99.90;;;5.79;82.93;101755.19;4974220;28;20074;-68
2024/01/19 08:35:33;;;;;;;12.60;7.25;;;5.50;99.90;;;5.69;83.41;101748.75;4972892;28;20404;-71
2024/01/19 08:38:01;;;;;;;16.45;7.50;;;5.50;99.90;;;5.68;83.66;101752.25;4974356;28;20117;-72
2024/01/19 08:40:30;;;;;;;15.50;7.63;;;5.40;99.90;;;5.74;83.70;101755.06;4973011;28;20050;-71
2024/01/19 08:42:58;;;;;;;10.38;7.50;;;5.50;99.90;;;5.64;83.93;101750.38;4974109;28;20070;-73
2024/01/19 08:45:31;;;;;;;12.93;7.07;;;5.40;99.90;;;5.73;84.59;101750.63;4974159;28;20435;-72
2024/01/19 08:48:00;;;;;;;14.60;8.02;;;5.50;99.90;;;5.88;85.27;101759.00;4974193;28;20043;-69
2024/01/19 08:50:29;;;;;;;12.32;7.20;;;5.60;99.90;;;5.89;84.97;101763.41;4989100;28;20441;-69
2024/01/19 08:52:58;;;;;;;15.88;8.02;;;5.70;99.90;;;6.05;85.25;101768.25;4989104;28;20055;-75
2024/01/19 08:55:26;;;;;;;12.55;7.55;;;5.80;99.90;;;6.35;85.14;101774.34;4973809;28;20057;-77
2024/01/19 08:57:55;;;;;;;14.88;7.35;;;6.10;99.90;;;6.54;84.68;101785.34;4972727;28;20512;-71
2024/01/19 09:00:24;;;;;;;19.40;8.05;;;6.30;99.90;;;6.62;83.53;101781.19;4974117;28;20403;-68
2024/01/19 09:02:53;;;;;;;17.23;7.80;;;6.40;99.90;;;6.77;82.97;101786.84;4989121;28;20469;-71
2024/01/19 09:05:31;;;;;;;14.02;7.50;;;6.50;99.90;;;7.09;83.41;101788.50;4973916;28;20105;-69
2024/01/19 09:08:00;;;;;;;17.70;7.50;;;6.80;99.90;;;7.41;83.40;101781.38;4974280;28;20042;-69
2024/01/19 09:10:29;;;;;;;23.90;7.85;;;7.20;99.90;;;7.82;82.35;101786.69;4974409;28;20472;-73
2024/01/19 09:12:58;;;;;;;19.67;8.02;;;7.60;99.90;;;8.19;81.26;101794.50;4974140;28;20113;-73
2024/01/19 09:15:26;;;;;;;17.25;7.80;;;8.00;99.90;;;8.55;79.87;101798.75;4989347;28;20622;-66
2024/01/19 09:17:56;;;;;;;14.65;7.70;;;8.30;99.90;;;8.85;78.58;101804.56;4974096;28;20053;-75
2024/01/19 09:20:26;;;;;;;20.13;7.80;;;8.70;99.90;;;9.06;76.70;101803.19;4974200;28;20386;-70
2024/01/19 09:22:54;;;;;;;21.38;7.45;;;8.90;99.90;;;9.31;75.28;101807.09;4974466;28;20058;-71
2024/01/19 09:25:23;;;;;;;18.10;7.15;;;9.10;99.90;;;9.52;73.95;101815.38;4974026;28;20047;-77
2024/01/19 09:27:52;;;;;;;13.98;7.18;;;9.30;99.90;;;9.77;72.97;101813.97;4974009;28;20455;-72
2024/01/19 09:30:21;;;;;;;14.35;6.60;;;9.60;99.90;;;10.04;71.90;101817.84;4973542;28;20054;-73
2024/01/19 09:32:49;;;;;;;13.70;7.22;;;9.80;99.90;;;10.17;70.72;101820.69;4989004;28;20137;-67
2024/01/19 09:35:19;;;;;;;18.65;7.28;;;9.90;99.90;;;10.34;69.80;101820.03;4973595;28;20400;-71
2024/01/19 09:37:48;;;;;;;11.88;6.43;;;10.20;99.90;;;10.58;69.01;101824.72;4973844;28;20058;-76
2024/01/19 09:40:19;;;;;;;17.63;7.47;;;10.40;99.90;;;10.74;68.62;101831.94;4973754;28;20097;-68
2024/01/19 09:42:54;;;;;;;11.50;6.65;;;10.50;99.90;;;10.94;67.81;101832.16;4971814;28;20050;-70
2024/01/19 09:45:27;;;;;;;15.70;6.90;;;10.70;99.90;;;10.97;66.93;101840.09;4973431;28;20093;-68
2024/01/19 09:48:06;;;;;;;16.33;6.50;;;10.80;99.90;;;11.25;66.16;101853.59;4973412;28;20046;-68
2024/01/19 09:50:37;;;;;;;19.98;6.75;;;11.00;99.90;;;11.36;65.40;101854.56;4973190;28;20054;-68
2024/01/19 09:53:20;;;;;;;16.60;7.10;;;11.20;99.90;;;11.56;65.25;101854.72;4973058;28;20399;-68
2024/01/19 09:55:49;;;;;;;14.57;6.85;;;11.30;99.90;;;11.77;64.69;101860.22;4973187;28;20042;-68
2024/01/19 09:58:18;;;;;;;13.85;6.55;;;11.60;99.90;;;11.88;64.23;101855.00;4972715;28;20431;-68
2024/01/19 10:00:51;;;;;;;16.95;5.75;;;11.70;99.90;;;11.52;63.55;101851.19;4972813;28;20046;-68
2024/01/19 10:03:22;;;;;;;16.30;5.95;;;11.50;99.90;;;11.16;61.67;101863.22;4971669;28;20101;-68
2024/01/19 10:05:52;;;;;;;15.63;5.40;;;11.00;99.90;;;11.06;61.70;101866.66;4973260;28;20063;-68
2024/01/19 10:08:22;;;;;;;11.82;5.07;;;10.90;99.90;;;11.09;61.88;101864.06;4972849;28;20049;-68
2024/01/19 10:10:51;;;;;;;13.23;5.95;;;10.90;99.90;;;11.09;61.48;101864.91;4972355;28;20043;-70
2024/01/19 10:13:20;;;;;;;19.17;5.68;;;10.90;99.90;;;11.27;61.01;101870.41;4972760;28;20039;-73
2024/01/19 10:15:49;;;;;;;13.23;5.80;;;11.00;99.90;;;11.18;60.61;101862.38;4972496;28;20054;-79
2024/01/19 10:18:19;;;;;;;9.95;5.10;;;11.00;99.90;;;11.48;60.75;101886.47;4972975;28;20101;-74
2024/01/19 10:20:51;;;;;;;;;;;11.20;99.90;;;11.42;59.81;101890.84;4972594;28;20078;-75
2024/01/19 10:23:22;;;;;;;11.70;5.70;;;11.30;99.90;;;11.06;59.75;101890.50;4972306;28;20009;-69
2024/01/19 10:25:51;;;;;;;;;;;11.00;99.90;;;11.18;60.32;101887.97;4972695;28;20109;-69
2024/01/19 10:28:34;;;;;;;11.55;5.40;;;10.90;99.90;;;11.29;60.01;101892.50;4971489;28;19932;-77